createdAt,value
2018-11-04T00:00:56.632Z,12.33
2018-11-04T00:03:25.883Z,12.31
2018-11-04T00:05:54.554Z,12.37
2018-11-04T00:08:23.381Z,12.38
2018-11-04T00:10:52.091Z,12.38
2018-11-04T00:13:21.181Z,12.40
2018-11-04T00:15:49.937Z,12.35
2018-11-04T00:18:18.767Z,12.39
2018-11-04T00:20:47.434Z,12.35
2018-11-04T00:23:16.107Z,12.39
2018-11-04T00:25:44.781Z,12.40
2018-11-04T00:28:13.470Z,12.42
2018-11-04T00:30:42.343Z,12.40
2018-11-04T00:33:11.094Z,12.39
2018-11-04T00:35:39.821Z,12.38
2018-11-04T00:38:08.581Z,12.34
2018-11-04T00:40:37.275Z,12.31
2018-11-04T00:43:06.482Z,12.31
2018-11-04T00:45:35.175Z,12.23
2018-11-04T00:48:04.007Z,12.28
2018-11-04T00:50:32.770Z,12.24
2018-11-04T00:53:01.486Z,12.19
2018-11-04T00:55:30.203Z,12.30
2018-11-04T00:57:58.878Z,12.33
2018-11-04T01:00:27.639Z,12.35
2018-11-04T01:02:56.526Z,12.39
2018-11-04T01:05:25.262Z,12.36
2018-11-04T01:07:53.922Z,12.33
2018-11-04T01:10:22.662Z,12.29
2018-11-04T01:12:51.322Z,12.26
2018-11-04T01:15:20.194Z,12.25
2018-11-04T01:17:48.908Z,12.25
2018-11-04T01:20:18.159Z,12.22
2018-11-04T01:22:47.128Z,12.27
2018-11-04T01:25:15.904Z,12.29
2018-11-04T01:27:44.749Z,12.23
2018-11-04T01:30:15.112Z,12.25
2018-11-04T01:32:44.273Z,12.29
2018-11-04T01:35:13.126Z,12.25
2018-11-04T01:37:41.777Z,12.24
2018-11-04T01:40:10.903Z,12.28
2018-11-04T01:42:39.889Z,12.33
2018-11-04T01:45:10.138Z,12.25
2018-11-04T01:47:38.781Z,12.30
2018-11-04T01:50:10.924Z,12.26
2018-11-04T01:52:39.564Z,12.32
2018-11-04T01:55:08.988Z,12.23
2018-11-04T01:57:37.734Z,12.19
2018-11-04T02:00:10.457Z,12.21
2018-11-04T02:02:39.130Z,12.18
2018-11-04T02:05:08.550Z,12.24
2018-11-04T02:07:37.216Z,12.24
2018-11-04T02:10:07.229Z,12.21
2018-11-04T02:12:35.913Z,12.14
2018-11-04T02:15:04.970Z,12.22
2018-11-04T02:17:33.740Z,12.14
2018-11-04T02:20:02.500Z,12.12
2018-11-04T02:22:31.192Z,12.13
2018-11-04T02:24:59.998Z,12.23
2018-11-04T02:27:28.634Z,12.22
2018-11-04T02:29:57.445Z,12.23
2018-11-04T02:32:26.178Z,12.18
2018-11-04T02:34:54.914Z,12.10
2018-11-04T02:37:23.682Z,12.03
2018-11-04T02:39:52.457Z,12.12
2018-11-04T02:42:21.301Z,12.16
2018-11-04T02:44:50.066Z,12.10
2018-11-04T02:47:18.702Z,12.10
2018-11-04T02:49:47.447Z,12.11
2018-11-04T02:52:16.110Z,12.08
2018-11-04T02:54:44.927Z,12.13
2018-11-04T02:57:13.709Z,12.11
2018-11-04T02:59:42.401Z,12.09
2018-11-04T03:02:11.368Z,12.09
2018-11-04T03:04:40.011Z,12.13
2018-11-04T03:07:08.746Z,12.05
2018-11-04T03:09:37.455Z,12.09
2018-11-04T03:12:06.445Z,12.11
2018-11-04T03:14:35.221Z,12.06
2018-11-04T03:17:04.125Z,12.08
2018-11-04T03:19:32.930Z,11.96
2018-11-04T03:22:01.574Z,11.98
2018-11-04T03:24:30.827Z,11.96
2018-11-04T03:26:59.687Z,11.95
2018-11-04T03:29:28.442Z,11.84
2018-11-04T03:31:57.175Z,11.87
2018-11-04T03:34:25.941Z,11.88
2018-11-04T03:36:54.631Z,11.91
2018-11-04T03:39:23.493Z,11.82
2018-11-04T03:41:52.248Z,11.86
2018-11-04T03:44:20.997Z,11.87
2018-11-04T03:46:49.759Z,11.75
2018-11-04T03:49:18.421Z,11.77
2018-11-04T03:51:47.164Z,11.83
2018-11-04T03:54:15.824Z,11.85
2018-11-04T03:56:44.570Z,11.81
2018-11-04T03:59:13.571Z,11.89
2018-11-04T04:01:42.271Z,11.82
2018-11-04T04:04:11.006Z,11.83
2018-11-04T04:06:39.646Z,11.82
2018-11-04T04:09:09.524Z,11.87
2018-11-04T04:11:38.278Z,11.81
2018-11-04T04:14:07.518Z,11.91
2018-11-04T04:16:36.398Z,11.98
2018-11-04T04:19:05.372Z,12.00
2018-11-04T04:21:34.006Z,12.03
2018-11-04T04:24:02.821Z,12.00
2018-11-04T04:26:31.518Z,11.92
2018-11-04T04:29:00.217Z,11.96
2018-11-04T04:31:29.254Z,12.01
2018-11-04T04:33:57.970Z,12.04
2018-11-04T04:36:26.671Z,12.05
2018-11-04T04:38:55.337Z,11.97
2018-11-04T04:41:24.934Z,11.92
2018-11-04T04:43:53.781Z,11.93
2018-11-04T04:46:22.442Z,11.96
2018-11-04T04:48:51.305Z,11.91
2018-11-04T04:51:19.957Z,11.95
2018-11-04T04:53:48.597Z,11.84
2018-11-04T04:56:17.248Z,11.93
2018-11-04T04:58:45.878Z,11.95
2018-11-04T05:01:14.530Z,12.00
2018-11-04T05:03:43.325Z,12.00
2018-11-04T05:06:11.975Z,11.99
2018-11-04T05:08:40.681Z,12.04
2018-11-04T05:11:09.426Z,12.01
2018-11-04T05:13:38.121Z,11.94
2018-11-04T05:16:06.984Z,12.05
2018-11-04T05:18:35.610Z,12.00
2018-11-04T05:21:04.362Z,12.05
2018-11-04T05:23:33.038Z,12.05
2018-11-04T05:26:01.790Z,11.99
2018-11-04T05:28:30.478Z,11.89
2018-11-04T05:30:59.166Z,11.93
2018-11-04T05:33:27.883Z,11.87
2018-11-04T05:35:56.597Z,11.88
2018-11-04T05:38:25.283Z,11.92
2018-11-04T05:40:53.950Z,11.94
2018-11-04T05:43:22.623Z,11.96
2018-11-04T05:45:51.348Z,11.89
2018-11-04T05:48:20.040Z,11.94
2018-11-04T05:50:48.833Z,11.90
2018-11-04T05:53:17.464Z,11.89
2018-11-04T05:55:46.166Z,11.84
2018-11-04T05:58:14.797Z,11.84
2018-11-04T06:00:43.674Z,11.89
2018-11-04T06:03:12.369Z,11.91
2018-11-04T06:05:41.073Z,11.95
2018-11-04T06:08:09.786Z,12.00
2018-11-04T06:10:38.557Z,12.04
2018-11-04T06:13:07.353Z,11.99
2018-11-04T06:15:36.224Z,11.94
2018-11-04T06:18:05.111Z,12.06
2018-11-04T06:20:33.922Z,11.99
2018-11-04T06:23:02.674Z,12.05
2018-11-04T06:25:31.350Z,12.10
2018-11-04T06:28:00.023Z,12.16
2018-11-04T06:30:28.739Z,12.16
2018-11-04T06:32:57.481Z,12.14
2018-11-04T06:35:26.121Z,12.15
2018-11-04T06:37:54.925Z,12.10
2018-11-04T06:40:23.712Z,12.09
2018-11-04T06:42:52.379Z,11.97
2018-11-04T06:45:21.054Z,11.97
2018-11-04T06:47:49.734Z,11.95
2018-11-04T06:50:18.523Z,12.10
2018-11-04T06:52:47.165Z,12.09
2018-11-04T06:55:15.934Z,11.93
2018-11-04T06:57:44.720Z,11.90
2018-11-04T07:00:13.418Z,11.93
2018-11-04T07:02:42.048Z,12.00
2018-11-04T07:05:10.710Z,12.07
2018-11-04T07:07:39.338Z,12.08
2018-11-04T07:10:09.194Z,12.08
2018-11-04T07:12:37.939Z,12.13
2018-11-04T07:15:06.951Z,12.11
2018-11-04T07:17:35.841Z,12.16
2018-11-04T07:20:04.904Z,12.23
2018-11-04T07:22:33.605Z,12.20
2018-11-04T07:25:02.363Z,12.18
2018-11-04T07:27:31.185Z,12.26
2018-11-04T07:29:59.922Z,12.29
2018-11-04T07:32:28.561Z,12.27
2018-11-04T07:34:57.289Z,12.29
2018-11-04T07:37:26.064Z,12.28
2018-11-04T07:39:54.758Z,12.43
2018-11-04T07:42:23.639Z,12.35
2018-11-04T07:44:52.450Z,12.44
2018-11-04T07:47:21.081Z,12.39
2018-11-04T07:49:49.729Z,12.47
2018-11-04T07:52:18.390Z,12.42
2018-11-04T07:54:47.097Z,12.41
2018-11-04T07:57:15.841Z,12.37
2018-11-04T07:59:44.734Z,12.42
2018-11-04T08:02:13.578Z,12.35
2018-11-04T08:04:42.241Z,12.40
2018-11-04T08:07:10.960Z,12.33
2018-11-04T08:09:39.621Z,12.41
2018-11-04T08:12:08.450Z,12.44
2018-11-04T08:14:37.258Z,12.35
2018-11-04T08:17:06.275Z,12.41
2018-11-04T08:19:35.027Z,12.43
2018-11-04T08:22:04.213Z,12.43
2018-11-04T08:24:32.868Z,12.42
2018-11-04T08:27:01.709Z,12.46
2018-11-04T08:29:30.664Z,12.35
2018-11-04T08:31:59.393Z,12.43
2018-11-04T08:34:28.166Z,12.52
2018-11-04T08:36:57.028Z,12.52
2018-11-04T08:39:25.950Z,12.41
2018-11-04T08:41:54.836Z,12.41
2018-11-04T08:44:23.486Z,12.55
2018-11-04T08:46:52.106Z,12.51
2018-11-04T08:49:20.842Z,12.49
2018-11-04T08:51:49.740Z,12.55
2018-11-04T08:54:18.399Z,12.57
2018-11-04T08:56:47.145Z,12.52
2018-11-04T08:59:15.946Z,12.62
2018-11-04T09:01:44.673Z,12.65
2018-11-04T09:04:13.509Z,12.69
2018-11-04T09:06:42.585Z,12.73
2018-11-04T09:09:11.277Z,12.65
2018-11-04T09:11:40.005Z,12.67
2018-11-04T09:14:08.984Z,12.72
2018-11-04T09:16:37.682Z,12.75
2018-11-04T09:19:06.430Z,12.55
2018-11-04T09:21:35.175Z,12.65
2018-11-04T09:24:03.949Z,12.71
2018-11-04T09:26:32.812Z,12.75
2018-11-04T09:29:01.630Z,12.70
2018-11-04T09:31:30.315Z,12.75
2018-11-04T09:33:59.102Z,12.88
2018-11-04T09:36:27.834Z,12.96
2018-11-04T09:38:56.600Z,12.84
2018-11-04T09:41:25.221Z,12.90
2018-11-04T09:43:53.915Z,12.91
2018-11-04T09:46:22.650Z,12.98
2018-11-04T09:48:51.333Z,12.96
2018-11-04T09:51:19.978Z,12.90
2018-11-04T09:53:49.098Z,12.91
2018-11-04T09:56:17.832Z,12.88
2018-11-04T09:58:46.502Z,12.86
2018-11-04T10:01:15.371Z,12.88
2018-11-04T10:03:44.060Z,12.76
2018-11-04T10:06:12.801Z,12.80
2018-11-04T10:08:41.487Z,12.73
2018-11-04T10:11:10.333Z,12.84
2018-11-04T10:13:39.140Z,12.78
2018-11-04T10:16:07.909Z,12.89
2018-11-04T10:18:36.584Z,12.92
2018-11-04T10:21:05.766Z,12.71
2018-11-04T10:23:34.079Z,12.80
2018-11-04T10:26:02.716Z,12.91
2018-11-04T10:28:31.602Z,12.94
2018-11-04T10:31:00.405Z,12.93
2018-11-04T10:33:29.188Z,13.00
2018-11-04T10:35:57.842Z,12.94
2018-11-04T10:38:26.570Z,12.93
2018-11-04T10:40:55.213Z,12.92
2018-11-04T10:43:24.053Z,12.89
2018-11-04T10:45:52.916Z,12.87
2018-11-04T10:48:21.717Z,12.93
2018-11-04T10:50:50.514Z,12.91
2018-11-04T10:53:19.246Z,12.99
2018-11-04T10:55:48.050Z,12.98
2018-11-04T10:58:16.829Z,12.99
2018-11-04T11:00:50.817Z,13.11
2018-11-04T11:03:19.587Z,13.04
2018-11-04T11:05:48.306Z,13.07
2018-11-04T11:08:16.969Z,13.16
2018-11-04T11:10:45.744Z,13.09
2018-11-04T11:13:14.533Z,12.98
2018-11-04T11:15:43.242Z,12.82
2018-11-04T11:18:11.980Z,12.95
2018-11-04T11:20:40.769Z,12.99
2018-11-04T11:23:09.499Z,13.06
2018-11-04T11:25:38.127Z,13.12
2018-11-04T11:28:06.881Z,13.28
2018-11-04T11:30:35.639Z,13.39
2018-11-04T11:33:04.697Z,13.50
2018-11-04T11:35:33.338Z,13.52
2018-11-04T11:38:02.280Z,13.40
2018-11-04T11:40:30.966Z,13.43
2018-11-04T11:42:59.827Z,13.55
2018-11-04T11:45:28.498Z,13.46
2018-11-04T11:47:57.269Z,13.55
2018-11-04T11:50:25.929Z,13.49
2018-11-04T11:52:54.649Z,13.38
2018-11-04T11:55:23.286Z,13.37
2018-11-04T11:57:52.021Z,13.34
2018-11-04T12:00:20.755Z,13.33
2018-11-04T12:02:49.930Z,13.32
2018-11-04T12:05:18.611Z,13.41
2018-11-04T12:07:47.394Z,13.38
2018-11-04T12:10:16.155Z,13.41
2018-11-04T12:12:44.806Z,13.37
2018-11-04T12:15:14.162Z,13.36
2018-11-04T12:17:42.968Z,13.36
2018-11-04T12:20:12.581Z,13.13
2018-11-04T12:22:41.561Z,13.18
2018-11-04T12:25:11.546Z,13.13
2018-11-04T12:27:40.406Z,13.16
2018-11-04T12:30:12.202Z,13.17
2018-11-04T12:32:41.228Z,13.23
2018-11-04T12:35:11.607Z,13.27
2018-11-04T12:37:40.638Z,13.38
2018-11-04T12:40:11.050Z,13.38
2018-11-04T12:42:39.945Z,13.43
2018-11-04T12:45:10.469Z,13.51
2018-11-04T12:47:39.225Z,13.53
2018-11-04T12:50:09.182Z,13.53
2018-11-04T12:52:38.244Z,13.44
2018-11-04T12:55:07.574Z,13.30
2018-11-04T12:57:36.593Z,13.38
2018-11-04T13:00:08.084Z,13.46
2018-11-04T13:02:36.743Z,13.47
2018-11-04T13:05:06.483Z,13.55
2018-11-04T13:07:35.334Z,13.61
2018-11-04T13:10:04.778Z,13.61
2018-11-04T13:12:33.614Z,13.50
2018-11-04T13:15:02.389Z,13.57
2018-11-04T13:17:31.069Z,13.59
2018-11-04T13:19:59.747Z,13.52
2018-11-04T13:22:28.514Z,13.57
2018-11-04T13:24:57.183Z,13.52
2018-11-04T13:27:26.165Z,13.46
2018-11-04T13:29:54.894Z,13.58
2018-11-04T13:32:23.678Z,13.55
2018-11-04T13:34:52.338Z,13.54
2018-11-04T13:37:21.120Z,13.61
2018-11-04T13:39:49.817Z,13.57
2018-11-04T13:42:18.901Z,13.51
2018-11-04T13:44:47.865Z,13.41
2018-11-04T13:47:16.745Z,13.36
2018-11-04T13:49:45.461Z,13.44
2018-11-04T13:52:14.195Z,13.40
2018-11-04T13:54:42.895Z,13.22
2018-11-04T13:57:11.667Z,13.27
2018-11-04T13:59:40.444Z,13.25
2018-11-04T14:02:09.130Z,13.29
2018-11-04T14:04:37.829Z,13.33
2018-11-04T14:07:06.586Z,13.45
2018-11-04T14:09:35.285Z,13.42
2018-11-04T14:12:04.141Z,13.52
2018-11-04T14:14:32.827Z,13.37
2018-11-04T14:17:01.631Z,13.26
2018-11-04T14:19:30.277Z,13.23
2018-11-04T14:21:58.977Z,13.17
2018-11-04T14:24:27.846Z,13.17
2018-11-04T14:26:56.895Z,12.95
2018-11-04T14:29:25.669Z,13.16
2018-11-04T14:31:54.384Z,13.13
2018-11-04T14:34:23.149Z,13.25
2018-11-04T14:36:51.818Z,13.23
2018-11-04T14:39:20.589Z,13.25
2018-11-04T14:41:49.471Z,13.30
2018-11-04T14:44:18.125Z,13.32
2018-11-04T14:46:46.895Z,13.39
2018-11-04T14:49:15.585Z,13.27
2018-11-04T14:51:44.358Z,13.26
2018-11-04T14:54:13.277Z,13.16
2018-11-04T14:56:42.434Z,13.12
2018-11-04T14:59:11.131Z,13.14
2018-11-04T15:01:40.006Z,13.07
2018-11-04T15:04:08.622Z,13.11
2018-11-04T15:06:37.382Z,13.17
2018-11-04T15:09:07.934Z,13.11
2018-11-04T15:11:36.706Z,13.04
2018-11-04T15:14:06.018Z,13.12
2018-11-04T15:16:34.760Z,13.03
2018-11-04T15:19:03.508Z,13.01
2018-11-04T15:21:32.328Z,13.08
2018-11-04T15:24:00.977Z,13.11
2018-11-04T15:26:29.709Z,13.18
2018-11-04T15:29:00.148Z,13.15
2018-11-04T15:31:28.826Z,13.21
2018-11-04T15:33:57.533Z,13.09
2018-11-04T15:36:26.320Z,13.15
2018-11-04T15:38:55.209Z,13.12
2018-11-04T15:41:23.878Z,13.07
2018-11-04T15:43:52.547Z,13.08
2018-11-04T15:46:21.393Z,13.02
2018-11-04T15:48:50.057Z,12.88
2018-11-04T15:51:18.778Z,12.97
2018-11-04T15:53:47.423Z,12.98
2018-11-04T15:56:16.582Z,12.99
2018-11-04T15:58:45.341Z,13.04
2018-11-04T16:01:14.123Z,13.05
2018-11-04T16:03:42.827Z,13.15
2018-11-04T16:06:11.508Z,13.12
2018-11-04T16:08:40.158Z,13.01
2018-11-04T16:11:08.891Z,13.02
2018-11-04T16:13:37.678Z,13.08
2018-11-04T16:16:06.949Z,13.13
2018-11-04T16:18:35.761Z,13.18
2018-11-04T16:21:04.469Z,13.21
2018-11-04T16:23:33.129Z,13.13
2018-11-04T16:26:02.082Z,13.21
2018-11-04T16:28:30.809Z,13.19
2018-11-04T16:30:59.623Z,13.21
2018-11-04T16:33:28.469Z,13.23
2018-11-04T16:35:57.156Z,13.23
2018-11-04T16:38:25.865Z,13.25
2018-11-04T16:40:54.565Z,13.24
2018-11-04T16:43:24.262Z,13.20
2018-11-04T16:45:52.946Z,13.25
2018-11-04T16:48:21.597Z,13.19
2018-11-04T16:50:50.278Z,13.13
2018-11-04T16:53:19.057Z,13.10
2018-11-04T16:55:47.771Z,13.04
2018-11-04T16:58:16.441Z,13.15
2018-11-04T17:00:45.122Z,13.09
2018-11-04T17:03:13.854Z,13.13
2018-11-04T17:05:43.017Z,13.12
2018-11-04T17:08:11.717Z,13.10
2018-11-04T17:10:40.429Z,13.12
2018-11-04T17:13:09.322Z,13.13
2018-11-04T17:15:38.106Z,13.15
2018-11-04T17:18:06.927Z,13.05
2018-11-04T17:20:35.718Z,13.22
2018-11-04T17:23:04.421Z,13.18
2018-11-04T17:25:33.294Z,13.05
2018-11-04T17:28:02.010Z,13.09
2018-11-04T17:30:30.887Z,13.12
2018-11-04T17:32:59.602Z,13.15
2018-11-04T17:35:28.783Z,13.07
2018-11-04T17:37:57.529Z,13.21
2018-11-04T17:40:26.218Z,13.18
2018-11-04T17:42:55.047Z,13.26
2018-11-04T17:45:23.863Z,13.18
2018-11-04T17:47:52.549Z,13.12
2018-11-04T17:50:21.275Z,13.06
2018-11-04T17:52:50.021Z,13.12
2018-11-04T17:55:18.775Z,13.12
2018-11-04T17:57:47.454Z,13.17
2018-11-04T18:00:17.421Z,13.09
2018-11-04T18:02:46.455Z,13.20
2018-11-04T18:05:15.455Z,13.23
2018-11-04T18:07:44.455Z,13.18
2018-11-04T18:10:14.298Z,13.23
2018-11-04T18:12:43.329Z,13.13
2018-11-04T18:15:12.853Z,13.14
2018-11-04T18:17:41.526Z,13.16
2018-11-04T18:20:11.183Z,13.18
2018-11-04T18:22:40.086Z,13.16
2018-11-04T18:25:10.087Z,13.16
2018-11-04T18:27:38.784Z,13.18
2018-11-04T18:30:10.130Z,13.19
2018-11-04T18:32:38.801Z,13.13
2018-11-04T18:35:07.882Z,13.18
2018-11-04T18:37:36.551Z,13.15
2018-11-04T18:40:06.742Z,13.21
2018-11-04T18:42:35.512Z,13.25
2018-11-04T18:45:04.356Z,13.23
2018-11-04T18:47:33.048Z,13.19
2018-11-04T18:50:01.737Z,13.14
2018-11-04T18:52:30.684Z,13.17
2018-11-04T18:54:59.415Z,13.15
2018-11-04T18:57:28.555Z,13.13
2018-11-04T18:59:57.345Z,13.13
2018-11-04T19:02:26.088Z,13.11
2018-11-04T19:04:54.895Z,13.07
2018-11-04T19:07:23.656Z,13.03
2018-11-04T19:09:52.413Z,13.09
2018-11-04T19:12:21.113Z,13.12
2018-11-04T19:14:49.968Z,13.16
2018-11-04T19:17:18.645Z,13.20
2018-11-04T19:19:47.384Z,13.18
2018-11-04T19:22:16.117Z,13.22
2018-11-04T19:24:44.929Z,13.29
2018-11-04T19:27:13.670Z,13.30
2018-11-04T19:29:42.453Z,13.27
2018-11-04T19:32:11.298Z,13.27
2018-11-04T19:34:40.033Z,13.28
2018-11-04T19:37:08.930Z,13.26
2018-11-04T19:39:37.686Z,13.22
2018-11-04T19:42:06.534Z,13.29
2018-11-04T19:44:35.488Z,13.19
2018-11-04T19:47:04.346Z,13.08
2018-11-04T19:49:33.452Z,13.06
2018-11-04T19:52:02.191Z,13.02
2018-11-04T19:54:31.149Z,13.04
2018-11-04T19:56:59.991Z,13.07
2018-11-04T19:59:28.993Z,13.04
2018-11-04T20:02:04.359Z,13.14
2018-11-04T20:04:33.086Z,13.03
2018-11-04T20:07:01.900Z,12.99
2018-11-04T20:09:31.030Z,13.08
2018-11-04T20:11:59.711Z,13.01
2018-11-04T20:14:28.565Z,13.02
2018-11-04T20:16:57.231Z,13.13
2018-11-04T20:19:31.277Z,13.08
2018-11-04T20:21:59.829Z,13.04
2018-11-04T20:24:33.781Z,13.11
2018-11-04T20:27:02.689Z,13.05
2018-11-04T20:29:31.744Z,12.99
2018-11-04T20:32:05.903Z,13.01
2018-11-04T20:34:34.894Z,13.00
2018-11-04T20:37:03.657Z,12.99
2018-11-04T20:39:37.821Z,13.02
2018-11-04T20:42:06.733Z,12.97
2018-11-04T20:44:39.886Z,12.98
2018-11-04T20:47:08.671Z,13.02
2018-11-04T20:49:43.144Z,12.96
2018-11-04T20:52:11.938Z,12.97
2018-11-04T20:54:40.794Z,12.98
2018-11-04T20:57:14.709Z,13.04
2018-11-04T20:59:43.578Z,13.05
2018-11-04T21:02:12.507Z,13.06
2018-11-04T21:04:41.132Z,12.96
2018-11-04T21:07:10.189Z,12.91
2018-11-04T21:09:39.454Z,12.86
2018-11-04T21:12:08.162Z,12.85
2018-11-04T21:14:37.651Z,12.85
2018-11-04T21:17:06.690Z,12.96
2018-11-04T21:19:35.549Z,12.98
2018-11-04T21:22:04.506Z,12.96
2018-11-04T21:24:33.325Z,12.88
2018-11-04T21:27:02.083Z,12.82
2018-11-04T21:29:31.171Z,12.75
2018-11-04T21:31:59.549Z,12.84
2018-11-04T21:34:28.290Z,12.87
2018-11-04T21:36:57.060Z,12.87
2018-11-04T21:39:25.752Z,12.88
2018-11-04T21:41:54.478Z,12.85
2018-11-04T21:44:23.417Z,12.85
2018-11-04T21:46:52.149Z,12.80
2018-11-04T21:49:20.977Z,12.80
2018-11-04T21:51:49.722Z,12.69
2018-11-04T21:54:18.399Z,12.75
2018-11-04T21:56:47.202Z,12.79
2018-11-04T21:59:15.922Z,12.75
2018-11-04T22:01:44.584Z,12.84
2018-11-04T22:04:13.700Z,12.77
2018-11-04T22:06:42.556Z,12.69
2018-11-04T22:09:11.713Z,12.77
2018-11-04T22:11:40.485Z,12.80
2018-11-04T22:14:09.205Z,12.84
2018-11-04T22:16:38.078Z,12.84
2018-11-04T22:19:06.919Z,12.81
2018-11-04T22:21:35.930Z,12.74
2018-11-04T22:24:04.837Z,12.75
2018-11-04T22:26:33.474Z,12.78
2018-11-04T22:29:02.229Z,12.80
2018-11-04T22:31:30.976Z,12.78
2018-11-04T22:33:59.665Z,12.75
2018-11-04T22:36:28.600Z,12.76
2018-11-04T22:38:58.149Z,12.71
2018-11-04T22:41:26.809Z,12.75
2018-11-04T22:43:55.773Z,12.80
2018-11-04T22:46:24.518Z,12.89
2018-11-04T22:48:53.206Z,12.80
2018-11-04T22:51:21.912Z,12.79
2018-11-04T22:53:50.725Z,12.76
2018-11-04T22:56:19.385Z,12.69
2018-11-04T22:58:48.384Z,12.71
2018-11-04T23:01:17.216Z,12.65
2018-11-04T23:03:45.868Z,12.55
2018-11-04T23:06:14.604Z,12.56
2018-11-04T23:08:43.404Z,12.59
2018-11-04T23:11:18.730Z,12.53
2018-11-04T23:13:47.530Z,12.47
2018-11-04T23:16:16.247Z,12.57
2018-11-04T23:18:45.034Z,12.64
2018-11-04T23:21:13.647Z,12.74
2018-11-04T23:23:42.357Z,12.58
2018-11-04T23:26:11.089Z,12.64
2018-11-04T23:28:39.847Z,12.68
2018-11-04T23:31:08.586Z,12.63
2018-11-04T23:33:37.342Z,12.58
2018-11-04T23:36:06.290Z,12.75
2018-11-04T23:38:35.038Z,12.69
2018-11-04T23:41:03.736Z,12.66
2018-11-04T23:43:32.413Z,12.66
2018-11-04T23:46:01.198Z,12.59
2018-11-04T23:48:29.998Z,12.68
2018-11-04T23:50:58.778Z,12.69
2018-11-04T23:53:27.570Z,12.72
2018-11-04T23:55:56.219Z,12.74
2018-11-04T23:58:24.866Z,12.71
